Time;durP1;ratioP1;P1;durP2;ratioP2;P2;SDS_P1;SDS_P2;PMS_P1;PMS_P2;Temp;Humidity;BMP_temperature;BMP_pressure;BME280_temperature;BME280_humidity;BME280_pressure;Samples;Min_cycle;Max_cycle;Signal;HPM_P1;HPM_P2
2021/08/11 00:01:03;;;;;;;;;;;;;;;26.78;42.47;100623.09;1779117;79;20211;-42
2021/08/11 00:03:30;;;;;;;;;;;;;;;26.77;42.50;100621.50;1777540;79;20796;-41
2021/08/11 00:05:56;;;;;;;;;;;;;;;26.79;42.53;100621.12;1778384;79;20158;-41
2021/08/11 00:08:22;;;;;;;;;;;;;;;26.79;42.55;100619.72;1775684;79;20681;-41
2021/08/11 00:10:48;;;;;;;;;;;;;;;26.79;42.58;100619.14;1771167;79;21002;-41
2021/08/11 00:13:14;;;;;;;;;;;;;;;26.80;42.61;100625.53;1764455;79;20238;-41
2021/08/11 00:15:40;;;;;;;;;;;;;;;26.80;42.64;100620.77;1776769;80;20263;-41
2021/08/11 00:18:06;;;;;;;;;;;;;;;26.80;42.69;100626.34;1773092;79;20183;-41
2021/08/11 00:20:32;;;;;;;;;;;;;;;26.82;42.73;100627.36;1773246;79;21729;-42
2021/08/11 00:22:58;;;;;;;;;;;;;;;26.83;42.76;100626.19;1777566;79;21946;-41
2021/08/11 00:25:24;;;;;;;;;;;;;;;26.83;42.82;100623.41;1774841;79;20180;-42
2021/08/11 00:27:50;;;;;;;;;;;;;;;26.84;42.86;100618.05;1779321;79;20104;-41
2021/08/11 00:30:16;;;;;;;;;;;;;;;26.84;42.90;100623.63;1775085;79;20192;-41
2021/08/11 00:32:42;;;;;;;;;;;;;;;26.85;42.94;100617.50;1776772;80;20737;-41
2021/08/11 00:35:08;;;;;;;;;;;;;;;26.85;42.99;100618.31;1778553;79;21790;-41
2021/08/11 00:37:34;;;;;;;;;;;;;;;26.86;43.02;100623.31;1756113;80;20390;-41
2021/08/11 00:39:59;;;;;;;;;;;;;;;26.87;43.05;100617.92;1761825;80;20752;-41
2021/08/11 00:42:26;;;;;;;;;;;;;;;26.86;43.08;100622.73;1754505;81;20532;-41
2021/08/11 00:44:52;;;;;;;;;;;;;;;26.87;43.11;100622.92;1772882;80;20188;-41
2021/08/11 00:47:20;;;;;;;;;;;;;;;26.88;43.14;100623.73;1760382;80;21162;-41
2021/08/11 00:49:46;;;;;;;;;;;;;;;26.87;43.18;100624.32;1755848;80;20230;-41
2021/08/11 00:52:12;;;;;;;;;;;;;;;26.88;43.21;100620.36;1789031;80;20182;-42
2021/08/11 00:54:37;;;;;;;;;;;;;;;26.89;43.23;100625.36;1789332;79;20214;-42
2021/08/11 00:57:04;;;;;;;;;;;;;;;26.89;43.25;100628.16;1788398;79;20796;-42
2021/08/11 00:59:33;;;;;;;;;;;;;;;26.90;43.29;100625.59;1785891;79;23277;-41
2021/08/11 01:01:59;;;;;;;;;;;;;;;26.90;43.31;100628.38;1785389;79;20447;-42
2021/08/11 01:04:25;;;;;;;;;;;;;;;26.90;43.33;100629.20;1785235;80;20214;-42
2021/08/11 01:06:51;;;;;;;;;;;;;;;26.91;43.36;100629.98;1758563;80;20331;-41
2021/08/11 01:09:17;;;;;;;;;;;;;;;26.91;43.38;100630.79;1784581;80;20241;-41
2021/08/11 01:11:45;;;;;;;;;;;;;;;26.92;43.41;100633.00;1780024;79;21131;-41
2021/08/11 01:14:13;;;;;;;;;;;;;;;26.91;43.42;100625.20;1780741;78;20245;-42
2021/08/11 01:16:39;;;;;;;;;;;;;;;26.92;43.44;100623.23;1778631;79;20547;-41
2021/08/11 01:19:04;;;;;;;;;;;;;;;26.93;43.46;100616.48;1779123;80;20280;-41
2021/08/11 01:21:40;;;;;;;;;;;;;;;26.93;43.49;100622.06;1787093;80;20090;-42
2021/08/11 01:24:22;;;;;;;;;;;;;;;26.93;43.49;100615.08;1778593;80;21168;-41
2021/08/11 01:27:15;;;;;;;;;;;;;;;26.93;43.52;100614.50;1782698;80;20144;-41
2021/08/11 01:30:01;;;;;;;;;;;;;;;26.93;43.52;100617.29;1782415;80;20375;-41
2021/08/11 01:32:56;;;;;;;;;;;;;;;26.95;43.53;100619.11;1774579;79;20136;-41
2021/08/11 01:35:23;;;;;;;;;;;;;;;26.95;43.55;100615.51;1784624;80;20166;-41
2021/08/11 01:37:50;;;;;;;;;;;;;;;26.94;43.56;100618.91;1781374;80;21048;-42
2021/08/11 01:40:18;;;;;;;;;;;;;;;26.94;43.59;100616.70;1787787;80;20179;-41
2021/08/11 01:42:44;;;;;;;;;;;;;;;26.93;43.62;100614.50;1782003;79;20375;-42
2021/08/11 01:45:16;;;;;;;;;;;;;;;26.94;43.63;100615.31;1782784;78;20403;-41
2021/08/11 01:48:04;;;;;;;;;;;;;;;26.94;43.68;100620.31;1757785;80;20219;-42
2021/08/11 01:50:31;;;;;;;;;;;;;;;26.95;43.70;100616.91;1759074;80;21944;-42
2021/08/11 01:52:57;;;;;;;;;;;;;;;26.95;43.70;100609.92;1763000;80;20213;-41
2021/08/11 01:55:23;;;;;;;;;;;;;;;26.96;43.74;100615.73;1753846;80;20190;-42
2021/08/11 01:57:52;;;;;;;;;;;;;;;26.96;43.75;100610.16;1781268;80;20242;-41
2021/08/11 02:00:19;;;;;;;;;;;;;;;26.96;43.78;100607.36;1785758;79;20177;-41
2021/08/11 02:02:46;;;;;;;;;;;;;;;26.96;43.79;100604.57;1764849;80;21207;-41
2021/08/11 02:05:12;;;;;;;;;;;;;;;26.97;43.79;100605.61;1765703;80;20404;-42
2021/08/11 02:07:39;;;;;;;;;;;;;;;26.96;43.82;100606.78;1776198;79;20221;-42
2021/08/11 02:10:06;;;;;;;;;;;;;;;26.98;43.83;100609.22;1774519;80;20202;-41
2021/08/11 02:12:33;;;;;;;;;;;;;;;26.98;43.86;100609.22;1769408;80;20086;-41
2021/08/11 02:14:59;;;;;;;;;;;;;;;26.98;43.89;100617.01;1774848;79;21124;-41
2021/08/11 02:17:25;;;;;;;;;;;;;;;26.98;43.90;100612.82;1777356;80;20232;-42
2021/08/11 02:19:51;;;;;;;;;;;;;;;26.99;43.94;100610.23;1768724;80;20203;-41
2021/08/11 02:22:17;;;;;;;;;;;;;;;26.98;43.95;100605.84;1775700;79;20207;-41
2021/08/11 02:24:43;;;;;;;;;;;;;;;27.00;43.99;100611.04;1770986;80;20229;-41
2021/08/11 02:27:18;;;;;;;;;;;;;;;27.00;43.97;100606.85;1772264;79;21151;-41
2021/08/11 02:29:56;;;;;;;;;;;;;;;27.01;44.00;100611.27;1770028;79;20397;-41
2021/08/11 02:32:34;;;;;;;;;;;;;;;27.02;44.02;100610.10;1774279;79;20393;-41
2021/08/11 02:35:03;;;;;;;;;;;;;;;27.01;44.06;100607.08;1773083;80;20141;-42
2021/08/11 02:37:33;;;;;;;;;;;;;;;27.01;44.06;100601.49;1763165;79;20169;-42
2021/08/11 02:40:17;;;;;;;;;;;;;;;27.01;44.09;100600.91;1778369;78;21177;-42
2021/08/11 02:42:49;;;;;;;;;;;;;;;27.01;44.14;100595.91;1787383;78;20386;-40
2021/08/11 02:45:16;;;;;;;;;;;;;;;27.01;44.15;100600.91;1771631;80;20146;-41
2021/08/11 02:47:42;;;;;;;;;;;;;;;27.02;44.15;100596.14;1768146;80;20433;-41
2021/08/11 02:50:09;;;;;;;;;;;;;;;27.02;44.16;100598.94;1782186;79;20232;-41
2021/08/11 02:52:36;;;;;;;;;;;;;;;27.02;44.20;100607.31;1781588;79;21138;-41
2021/08/11 02:55:03;;;;;;;;;;;;;;;27.03;44.24;100601.95;1775252;79;20582;-41
2021/08/11 02:57:29;;;;;;;;;;;;;;;27.01;44.26;100603.70;1777438;79;20530;-41
2021/08/11 02:59:55;;;;;;;;;;;;;;;27.03;44.28;100600.56;1774183;79;20365;-41
2021/08/11 03:02:21;;;;;;;;;;;;;;;27.02;44.31;100603.12;1781434;79;20393;-41
2021/08/11 03:04:47;;;;;;;;;;;;;;;27.03;44.33;100604.74;1776995;79;22071;-40
2021/08/11 03:07:13;;;;;;;;;;;;;;;27.03;44.36;100601.34;1777567;79;21707;-41
2021/08/11 03:09:39;;;;;;;;;;;;;;;27.04;44.39;100600.75;1782660;79;20263;-41
2021/08/11 03:12:07;;;;;;;;;;;;;;;27.04;44.40;100600.17;1782998;79;20218;-41
2021/08/11 03:14:33;;;;;;;;;;;;;;;27.04;44.42;100604.36;1788920;79;20614;-41
2021/08/11 03:17:00;;;;;;;;;;;;;;;27.05;44.43;100600.98;1782113;79;21259;-40
2021/08/11 03:19:26;;;;;;;;;;;;;;;27.05;44.45;100605.17;1779477;79;20128;-41
2021/08/11 03:21:52;;;;;;;;;;;;;;;27.04;44.47;100607.73;1778519;79;20234;-41
2021/08/11 03:24:20;;;;;;;;;;;;;;;27.05;44.50;100604.59;1786999;79;20300;-43
2021/08/11 03:26:46;;;;;;;;;;;;;;;27.04;44.52;100605.75;1783735;79;20270;-41
2021/08/11 03:29:12;;;;;;;;;;;;;;;27.05;44.55;100605.98;1782694;79;21155;-41
2021/08/11 03:31:38;;;;;;;;;;;;;;;27.06;44.57;100604.81;1781570;79;21669;-41
2021/08/11 03:34:04;;;;;;;;;;;;;;;27.07;44.58;100605.05;1776698;79;20138;-41
2021/08/11 03:36:30;;;;;;;;;;;;;;;27.05;44.62;100608.77;1778121;79;20195;-40
2021/08/11 03:38:56;;;;;;;;;;;;;;;27.05;44.63;100610.17;1788990;79;20460;-41
2021/08/11 03:41:22;;;;;;;;;;;;;;;27.06;44.67;100608.19;1783273;79;21069;-41
2021/08/11 03:43:48;;;;;;;;;;;;;;;27.07;44.68;100619.59;1781877;79;20539;-41
2021/08/11 03:46:14;;;;;;;;;;;;;;;27.07;44.70;100623.78;1782471;79;20198;-41
2021/08/11 03:48:40;;;;;;;;;;;;;;;27.06;44.71;100627.16;1785064;79;20415;-41
2021/08/11 03:51:06;;;;;;;;;;;;;;;27.07;44.73;100624.59;1783191;79;20152;-41
2021/08/11 03:53:32;;;;;;;;;;;;;;;27.08;44.75;100623.98;1778607;79;21067;-41
2021/08/11 03:55:58;;;;;;;;;;;;;;;27.08;44.78;100621.19;1783048;79;20176;-41
2021/08/11 03:58:24;;;;;;;;;;;;;;;27.08;44.80;100628.98;1781109;79;20193;-41
2021/08/11 04:00:50;;;;;;;;;;;;;;;27.08;44.81;100630.37;1773533;79;20141;-41
2021/08/11 04:03:16;;;;;;;;;;;;;;;27.09;44.85;100629.79;1782510;80;20180;-42
2021/08/11 04:05:42;;;;;;;;;;;;;;;27.09;44.89;100625.02;1775815;79;21122;-41
2021/08/11 04:08:08;;;;;;;;;;;;;;;27.09;44.89;100626.41;1778407;80;20215;-41
2021/08/11 04:10:34;;;;;;;;;;;;;;;27.08;44.93;100630.37;1783867;79;20140;-41
2021/08/11 04:13:00;;;;;;;;;;;;;;;27.08;44.95;100633.16;1774616;79;20164;-41
2021/08/11 04:15:26;;;;;;;;;;;;;;;27.09;44.98;100640.96;1780049;79;20407;-41
2021/08/11 04:17:52;;;;;;;;;;;;;;;27.10;45.00;100644.80;1780156;79;21142;-41
2021/08/11 04:20:19;;;;;;;;;;;;;;;27.10;45.01;100645.38;1790733;78;20853;-41
2021/08/11 04:22:45;;;;;;;;;;;;;;;27.10;45.03;100645.38;1767574;80;20212;-41
2021/08/11 04:25:11;;;;;;;;;;;;;;;27.11;45.05;100647.00;1768754;79;20195;-41
2021/08/11 04:27:37;;;;;;;;;;;;;;;27.11;45.05;100652.00;1772529;79;20940;-41
2021/08/11 04:30:04;;;;;;;;;;;;;;;27.11;45.09;100648.40;1762760;79;21629;-41
2021/08/11 04:32:32;;;;;;;;;;;;;;;27.10;45.10;100652.36;1767291;80;20140;-41
2021/08/11 04:34:58;;;;;;;;;;;;;;;27.11;45.11;100653.98;1731917;80;20154;-41
2021/08/11 04:37:24;;;;;;;;;;;;;;;27.11;45.13;100655.38;1769798;79;20199;-41
2021/08/11 04:39:51;;;;;;;;;;;;;;;27.11;45.15;100660.38;1769863;79;20726;-41
2021/08/11 04:42:19;;;;;;;;;;;;;;;27.12;45.17;100662.56;1767997;80;21435;-41
2021/08/11 04:44:45;;;;;;;;;;;;;;;27.12;45.20;100666.17;1771087;79;20129;-41
2021/08/11 04:47:11;;;;;;;;;;;;;;;27.12;45.21;100662.56;1766174;80;20405;-41
2021/08/11 04:49:37;;;;;;;;;;;;;;;27.12;45.21;100666.75;1772326;79;21774;-41
2021/08/11 04:52:03;;;;;;;;;;;;;;;27.13;45.24;100673.96;1764634;79;20168;-41
2021/08/11 04:54:29;;;;;;;;;;;;;;;27.13;45.24;100670.59;1769748;79;21984;-41
2021/08/11 04:56:55;;;;;;;;;;;;;;;27.14;45.28;100668.61;1775483;80;20178;-41
2021/08/11 04:59:21;;;;;;;;;;;;;;;27.14;45.27;100676.98;1763163;80;20172;-41
2021/08/11 05:01:47;;;;;;;;;;;;;;;27.14;45.29;100670.81;1767833;80;20653;-41
2021/08/11 05:04:13;;;;;;;;;;;;;;;27.14;45.30;100680.59;1761170;80;20219;-42
2021/08/11 05:06:39;;;;;;;;;;;;;;;27.15;45.33;100677.22;1776985;79;20991;-41
2021/08/11 05:09:05;;;;;;;;;;;;;;;27.14;45.34;100675.00;1774994;79;20098;-41
2021/08/11 05:11:31;;;;;;;;;;;;;;;27.16;45.35;100678.81;1779934;79;20461;-41
2021/08/11 05:13:57;;;;;;;;;;;;;;;27.17;45.35;100686.02;1780678;79;20306;-41
2021/08/11 05:16:23;;;;;;;;;;;;;;;27.17;45.39;100686.02;1776859;79;20248;-40
2021/08/11 05:18:49;;;;;;;;;;;;;;;27.16;45.40;100685.20;1778544;79;20902;-40
2021/08/11 05:21:15;;;;;;;;;;;;;;;27.17;45.44;100688.23;1781755;79;20214;-41
2021/08/11 05:23:41;;;;;;;;;;;;;;;27.16;45.45;100683.81;1776990;79;20870;-41
2021/08/11 05:26:07;;;;;;;;;;;;;;;27.16;45.44;100682.41;1777016;79;20465;-42
2021/08/11 05:28:32;;;;;;;;;;;;;;;27.17;45.46;100688.23;1776662;79;20190;-40
2021/08/11 05:30:59;;;;;;;;;;;;;;;27.17;45.47;100701.38;1777373;79;21166;-41
2021/08/11 05:33:25;;;;;;;;;;;;;;;27.16;45.48;100693.59;1775894;79;20378;-41
2021/08/11 05:35:51;;;;;;;;;;;;;;;27.17;45.50;100697.19;1777133;79;20257;-41
2021/08/11 05:38:17;;;;;;;;;;;;;;;27.17;45.51;100690.20;1782922;79;21076;-40
2021/08/11 05:40:43;;;;;;;;;;;;;;;27.17;45.52;100691.02;1782157;79;20211;-41
2021/08/11 05:43:09;;;;;;;;;;;;;;;27.16;45.53;100689.40;1775460;79;21125;-41
2021/08/11 05:45:35;;;;;;;;;;;;;;;27.17;45.53;100691.02;1777792;79;20160;-41
2021/08/11 05:48:01;;;;;;;;;;;;;;;27.17;45.57;100685.44;1781021;79;20155;-41
2021/08/11 05:50:27;;;;;;;;;;;;;;;27.17;45.58;100681.83;1779133;79;20671;-41
2021/08/11 05:52:52;;;;;;;;;;;;;;;27.18;45.58;100684.27;1776263;79;20146;-41
2021/08/11 05:55:19;;;;;;;;;;;;;;;27.17;45.59;100679.85;1773689;79;21124;-41
2021/08/11 05:57:45;;;;;;;;;;;;;;;27.17;45.60;100675.66;1785875;79;20180;-40
2021/08/11 06:00:11;;;;;;;;;;;;;;;27.17;45.63;100679.85;1779480;79;20739;-41
2021/08/11 06:02:38;;;;;;;;;;;;;;;27.18;45.64;100683.45;1769405;79;20494;-40
2021/08/11 06:05:07;;;;;;;;;;;;;;;27.17;45.66;100685.44;1770675;79;20130;-40
2021/08/11 06:07:32;;;;;;;;;;;;;;;27.17;45.67;100695.21;1773278;80;21321;-41
2021/08/11 06:09:58;;;;;;;;;;;;;;;27.18;45.67;100693.23;1770423;79;21704;-41
2021/08/11 06:12:24;;;;;;;;;;;;;;;27.18;45.70;100696.84;1769948;80;20200;-41
2021/08/11 06:14:50;;;;;;;;;;;;;;;27.18;45.69;100693.23;1768250;79;20662;-41
2021/08/11 06:17:17;;;;;;;;;;;;;;;27.17;45.70;100693.00;1770419;80;20138;-41
2021/08/11 06:19:44;;;;;;;;;;;;;;;27.18;45.72;100689.05;1767586;80;21069;-41
2021/08/11 06:22:10;;;;;;;;;;;;;;;27.17;45.75;100686.83;1770779;79;20185;-41
2021/08/11 06:24:36;;;;;;;;;;;;;;;27.18;45.75;100687.06;1774481;79;20287;-41
2021/08/11 06:27:03;;;;;;;;;;;;;;;27.18;45.77;100693.23;1765697;80;20152;-41
2021/08/11 06:29:29;;;;;;;;;;;;;;;27.18;45.78;100696.02;1766515;79;20235;-40
2021/08/11 06:31:55;;;;;;;;;;;;;;;27.18;45.78;100691.25;1769426;79;22327;-41
2021/08/11 06:34:23;;;;;;;;;;;;;;;27.19;45.78;100690.67;1773683;79;21521;-41
2021/08/11 06:36:49;;;;;;;;;;;;;;;27.18;45.81;100685.66;1769960;79;20743;-41
2021/08/11 06:39:15;;;;;;;;;;;;;;;27.20;45.82;100685.31;1767143;79;21649;-41
2021/08/11 06:41:42;;;;;;;;;;;;;;;27.19;45.82;100684.50;1771602;80;20251;-40
2021/08/11 06:44:08;;;;;;;;;;;;;;;27.19;45.83;100683.10;1768511;79;21111;-41
2021/08/11 06:46:33;;;;;;;;;;;;;;;27.19;45.83;100681.70;1771198;80;20206;-41
2021/08/11 06:49:00;;;;;;;;;;;;;;;27.20;45.83;100681.13;1773019;79;20189;-41
2021/08/11 06:51:26;;;;;;;;;;;;;;;27.19;45.83;100685.89;1771094;80;20150;-42
2021/08/11 06:53:52;;;;;;;;;;;;;;;27.19;45.85;100685.89;1772080;80;20471;-41
2021/08/11 06:56:18;;;;;;;;;;;;;;;27.20;45.84;100690.90;1770601;79;21203;-41
2021/08/11 06:58:47;;;;;;;;;;;;;;;27.20;45.87;100691.68;1768506;79;20133;-42
2021/08/11 07:01:13;;;;;;;;;;;;;;;27.20;45.88;100688.89;1767039;79;20587;-43
2021/08/11 07:03:39;;;;;;;;;;;;;;;27.22;45.93;100696.33;1776806;80;20156;-43
2021/08/11 07:06:06;;;;;;;;;;;;;;;27.22;45.97;100692.72;1776819;79;20544;-42
2021/08/11 07:08:31;;;;;;;;;;;;;;;27.21;46.00;100689.70;1753407;80;21974;-39
2021/08/11 07:10:58;;;;;;;;;;;;;;;27.22;46.02;100687.14;1777788;79;20214;-43
2021/08/11 07:13:24;;;;;;;;;;;;;;;27.21;46.07;100684.92;1775461;79;20423;-40
2021/08/11 07:15:49;;;;;;;;;;;;;;;27.23;46.09;100691.55;1774653;79;20281;-40
2021/08/11 07:18:17;;;;;;;;;;;;;;;27.24;46.14;100693.18;1779406;79;21307;-40
2021/08/11 07:20:43;;;;;;;;;;;;;;;27.23;46.20;100690.16;1778627;79;21021;-41
2021/08/11 07:23:09;;;;;;;;;;;;;;;27.24;46.20;100693.96;1777546;80;20457;-40
2021/08/11 07:25:35;;;;;;;;;;;;;;;27.24;46.20;100692.56;1764907;79;20576;-41
2021/08/11 07:28:01;;;;;;;;;;;;;;;27.24;46.20;100692.56;1780002;79;20752;-40
2021/08/11 07:30:27;;;;;;;;;;;;;;;27.23;46.21;100690.97;1776895;79;20187;-40
2021/08/11 07:32:52;;;;;;;;;;;;;;;27.24;46.21;100695.36;1771651;79;20204;-40
2021/08/11 07:35:19;;;;;;;;;;;;;;;27.23;46.21;100692.37;1783916;79;20172;-40
2021/08/11 07:37:47;;;;;;;;;;;;;;;27.23;46.23;100688.17;1782931;79;20395;-40
2021/08/11 07:40:13;;;;;;;;;;;;;;;27.23;46.23;100687.36;1770219;79;20259;-40
2021/08/11 07:42:41;;;;;;;;;;;;;;;27.23;46.23;100693.77;1770625;79;20224;-40
2021/08/11 07:45:09;;;;;;;;;;;;;;;27.23;46.24;100685.39;1761666;80;21821;-40
2021/08/11 07:47:35;;;;;;;;;;;;;;;27.22;46.25;100693.53;1782705;79;20186;-40
2021/08/11 07:50:02;;;;;;;;;;;;;;;27.20;46.21;100700.67;1785031;79;20457;-41
2021/08/11 07:52:28;;;;;;;;;;;;;;;27.17;46.17;100690.20;1786241;79;20680;-41
2021/08/11 07:54:54;;;;;;;;;;;;;;;27.16;46.13;100689.98;1784608;79;20691;-40
2021/08/11 07:57:20;;;;;;;;;;;;;;;27.12;46.07;100691.88;1784939;80;21505;-40
2021/08/11 07:59:46;;;;;;;;;;;;;;;27.08;46.01;100690.41;1787434;79;21530;-40
2021/08/11 08:02:13;;;;;;;;;;;;;;;27.05;45.93;100686.16;1781433;79;20177;-40
2021/08/11 08:04:42;;;;;;;;;;;;;;;27.02;45.88;100685.49;1778599;80;20158;-41
2021/08/11 08:07:09;;;;;;;;;;;;;;;26.99;45.76;100675.84;1781747;80;20186;-40
2021/08/11 08:09:35;;;;;;;;;;;;;;;26.96;45.62;100676.58;1783448;80;21067;-40
2021/08/11 08:12:01;;;;;;;;;;;;;;;26.93;45.47;100678.71;1775810;80;20196;-41
2021/08/11 08:14:27;;;;;;;;;;;;;;;26.90;45.35;100676.66;1786076;80;20185;-40
2021/08/11 08:16:53;;;;;;;;;;;;;;;26.87;45.24;100667.59;1783276;79;20154;-40
2021/08/11 08:19:19;;;;;;;;;;;;;;;26.85;45.10;100667.16;1785029;80;20431;-41
2021/08/11 08:21:45;;;;;;;;;;;;;;;26.81;44.99;100660.66;1787723;80;21098;-40
2021/08/11 08:24:11;;;;;;;;;;;;;;;26.79;44.85;100658.80;1787525;80;20418;-40
2021/08/11 08:26:37;;;;;;;;;;;;;;;26.78;44.76;100668.34;1783769;78;20247;-40
2021/08/11 08:29:03;;;;;;;;;;;;;;;26.74;44.66;100672.45;1781871;80;21802;-40
2021/08/11 08:31:30;;;;;;;;;;;;;;;26.72;44.55;100662.25;1779810;80;20181;-41
2021/08/11 08:33:56;;;;;;;;;;;;;;;26.70;44.46;100659.58;1780389;79;21124;-40
2021/08/11 08:36:22;;;;;;;;;;;;;;;26.67;44.34;100656.12;1789238;80;20205;-40
2021/08/11 08:38:48;;;;;;;;;;;;;;;26.66;44.25;100657.29;1774985;79;20544;-40
2021/08/11 08:41:14;;;;;;;;;;;;;;;26.63;44.16;100654.65;1782750;80;20667;-40
2021/08/11 08:43:40;;;;;;;;;;;;;;;26.61;44.07;100650.00;1783034;78;20480;-40
2021/08/11 08:46:10;;;;;;;;;;;;;;;26.58;43.96;100655.50;1763340;80;21192;-40
2021/08/11 08:48:42;;;;;;;;;;;;;;;26.57;43.90;100651.90;1761708;79;20172;-40
2021/08/11 08:51:10;;;;;;;;;;;;;;;26.54;43.79;100648.45;1763224;80;20178;-40
2021/08/11 08:53:37;;;;;;;;;;;;;;;26.53;43.70;100651.00;1754577;80;20178;-40
2021/08/11 08:56:03;;;;;;;;;;;;;;;26.51;43.65;100644.99;1747993;80;20184;-40
2021/08/11 08:58:29;;;;;;;;;;;;;;;26.50;43.55;100645.34;1771680;79;21075;-40
2021/08/11 09:00:55;;;;;;;;;;;;;;;26.47;43.48;100642.70;1775897;79;20815;-40
2021/08/11 09:03:21;;;;;;;;;;;;;;;26.46;43.40;100638.29;1785347;79;20257;-40
2021/08/11 09:05:47;;;;;;;;;;;;;;;26.45;43.33;100638.64;1785230;80;21724;-38
2021/08/11 09:08:13;;;;;;;;;;;;;;;26.43;43.24;100633.44;1751520;80;20186;-38
2021/08/11 09:10:40;;;;;;;;;;;;;;;26.42;43.18;100634.61;1781864;79;21237;-40
2021/08/11 09:13:18;;;;;;;;;;;;;;;26.40;43.11;100630.53;1792112;79;20236;-40
2021/08/11 09:15:49;;;;;;;;;;;;;;;26.39;43.04;100633.13;1782597;80;20158;-39
2021/08/11 09:18:17;;;;;;;;;;;;;;;26.38;42.97;100625.34;1783770;80;20412;-39
2021/08/11 09:20:53;;;;;;;;;;;;;;;26.36;42.91;100621.50;1774316;79;20205;-39
2021/08/11 09:23:37;;;;;;;;;;;;;;;26.35;42.87;100619.09;1779605;78;21129;-39
2021/08/11 09:26:05;;;;;;;;;;;;;;;26.34;42.78;100615.50;1784673;79;20325;-40
2021/08/11 09:28:33;;;;;;;;;;;;;;;26.34;42.71;100614.10;1784785;79;20244;-40
2021/08/11 09:30:59;;;;;;;;;;;;;;;26.32;42.65;100615.61;1783616;80;20202;-39
2021/08/11 09:33:25;;;;;;;;;;;;;;;26.32;42.60;100618.41;1782039;79;20141;-41
2021/08/11 09:35:52;;;;;;;;;;;;;;;26.30;42.54;100605.42;1753642;80;21169;-40
2021/08/11 09:38:18;;;;;;;;;;;;;;;26.28;42.50;100605.77;1753416;80;21013;-39
2021/08/11 09:40:44;;;;;;;;;;;;;;;26.28;42.43;100602.17;1748328;80;20182;-40
2021/08/11 09:43:19;;;;;;;;;;;;;;;26.26;42.39;100597.55;1797845;78;20153;-39
2021/08/11 09:45:52;;;;;;;;;;;;;;;26.26;42.37;100600.34;1781590;80;20140;-40
2021/08/11 09:48:20;;;;;;;;;;;;;;;26.25;42.33;100591.16;1781021;80;21157;-40
2021/08/11 09:50:51;;;;;;;;;;;;;;;26.24;42.28;100585.35;1765548;80;21612;-41
2021/08/11 09:53:23;;;;;;;;;;;;;;;26.24;42.25;100588.72;1760969;79;20146;-40
2021/08/11 09:56:01;;;;;;;;;;;;;;;26.23;42.22;100582.91;1752126;79;21714;-40
2021/08/11 09:58:25;;;;;;;;;;;;;;;26.23;42.17;100588.49;1772796;80;20137;-39
2021/08/11 10:00:52;;;;;;;;;;;;;;;26.21;42.06;100586.09;1768112;79;21090;-40
2021/08/11 10:03:18;;;;;;;;;;;;;;;26.21;42.00;100581.90;1767554;80;21245;-40
2021/08/11 10:05:44;;;;;;;;;;;;;;;26.19;41.93;100585.59;1768777;80;20142;-42
2021/08/11 10:08:10;;;;;;;;;;;;;;;26.18;41.95;100578.39;1776805;80;21717;-39
2021/08/11 10:10:47;;;;;;;;;;;;;;;26.17;41.97;100569.82;1772839;80;20105;-40
2021/08/11 10:13:17;;;;;;;;;;;;;;;26.15;41.98;100570.75;1777720;80;21100;-39
2021/08/11 10:15:45;;;;;;;;;;;;;;;26.14;41.96;100575.31;1778126;80;20215;-39
2021/08/11 10:18:11;;;;;;;;;;;;;;;26.12;41.99;100568.69;1773967;79;20136;-41
2021/08/11 10:20:38;;;;;;;;;;;;;;;26.12;42.04;100565.91;1780125;80;20137;-39
2021/08/11 10:23:04;;;;;;;;;;;;;;;26.12;42.00;100566.48;1771772;79;20204;-40
2021/08/11 10:25:30;;;;;;;;;;;;;;;26.11;41.99;100560.68;1775158;80;21157;-39
2021/08/11 10:27:59;;;;;;;;;;;;;;;26.09;42.01;100558.27;1774676;80;20231;-40
2021/08/11 10:30:25;;;;;;;;;;;;;;;26.09;42.03;100552.70;1773451;79;20123;-39
2021/08/11 10:32:51;;;;;;;;;;;;;;;26.09;42.01;100559.67;1766921;79;20172;-41
2021/08/11 10:35:17;;;;;;;;;;;;;;;26.08;42.04;100562.22;1773841;80;20385;-39
2021/08/11 10:37:43;;;;;;;;;;;;;;;26.09;42.03;100561.64;1774175;80;21217;-40
2021/08/11 10:40:10;;;;;;;;;;;;;;;26.11;42.08;100566.25;1769513;80;20210;-40
2021/08/11 10:42:36;;;;;;;;;;;;;;;26.15;42.12;100551.81;1781317;79;20246;-40
2021/08/11 10:45:02;;;;;;;;;;;;;;;26.20;42.13;100557.16;1775529;79;20696;-40
2021/08/11 10:47:30;;;;;;;;;;;;;;;26.24;42.13;100548.28;1773237;79;20451;-40
2021/08/11 10:50:04;;;;;;;;;;;;;;;26.28;42.15;100548.59;1771477;79;23162;-39
2021/08/11 10:52:31;;;;;;;;;;;;;;;26.32;42.17;100543.91;1770608;80;20202;-41
2021/08/11 10:54:59;;;;;;;;;;;;;;;26.38;42.16;100547.81;1770879;79;20131;-40
2021/08/11 10:57:38;;;;;;;;;;;;;;;26.41;42.17;100540.92;1774275;79;20213;-40
2021/08/11 11:00:25;;;;;;;;;;;;;;;26.47;42.17;100541.46;1775452;80;20116;-39
2021/08/11 11:02:52;;;;;;;;;;;;;;;26.51;42.18;100536.77;1776335;79;21029;-40
2021/08/11 11:05:27;;;;;;;;;;;;;;;26.54;42.16;100539.63;1774734;79;20120;-40
2021/08/11 11:08:15;;;;;;;;;;;;;;;26.57;42.19;100540.29;1775434;80;20204;-40
2021/08/11 11:10:43;;;;;;;;;;;;;;;26.63;42.20;100543.61;1768359;80;20187;-40
2021/08/11 11:13:26;;;;;;;;;;;;;;;26.66;42.19;100546.48;1768705;79;20226;-40
2021/08/11 11:15:53;;;;;;;;;;;;;;;26.69;42.21;100533.18;1774984;80;21022;-41
2021/08/11 11:20:48;;;;;;;;;;;;;;;26.75;42.22;100541.50;1769036;80;20463;-40
2021/08/11 11:23:34;;;;;;;;;;;;;;;26.78;42.23;100526.80;1761807;80;20158;-40
2021/08/11 11:26:05;;;;;;;;;;;;;;;26.82;42.24;100526.28;1763233;80;20405;-40
2021/08/11 11:28:55;;;;;;;;;;;;;;;26.86;42.25;100522.23;1763684;79;21124;-40
2021/08/11 11:31:37;;;;;;;;;;;;;;;26.89;42.27;100520.09;1768427;80;20202;-40
2021/08/11 11:34:24;;;;;;;;;;;;;;;26.92;42.26;100521.33;1768140;80;20134;-41
2021/08/11 11:36:59;;;;;;;;;;;;;;;26.95;42.26;100508.83;1769207;79;20162;-41
2021/08/11 11:39:35;;;;;;;;;;;;;;;26.97;42.27;100502.31;1771484;80;20175;-39
2021/08/11 11:42:25;;;;;;;;;;;;;;;27.00;42.28;100504.35;1770995;79;21988;-40
2021/08/11 11:45:03;;;;;;;;;;;;;;;27.03;42.32;100499.42;1770444;79;20327;-40
2021/08/11 11:47:42;;;;;;;;;;;;;;;27.06;42.32;100496.50;1773718;79;20186;-40
2021/08/11 11:50:25;;;;;;;;;;;;;;;27.08;42.31;100493.55;1775274;79;20165;-39
2021/08/11 11:53:00;;;;;;;;;;;;;;;27.11;42.32;100492.83;1762555;80;20148;-40
2021/08/11 11:55:33;;;;;;;;;;;;;;;27.14;42.35;100483.70;1768428;80;21274;-39
2021/08/11 11:58:01;;;;;;;;;;;;;;;27.15;42.36;100471.36;1768891;80;20578;-39
2021/08/11 12:00:28;;;;;;;;;;;;;;;27.19;42.38;100486.78;1768759;80;20196;-39
2021/08/11 12:02:54;;;;;;;;;;;;;;;27.21;42.39;100482.43;1774005;80;20487;-39
2021/08/11 12:05:21;;;;;;;;;;;;;;;27.23;42.41;100485.67;1775295;79;20443;-39
2021/08/11 12:07:46;;;;;;;;;;;;;;;27.25;42.42;100488.89;1764706;79;22010;-39
2021/08/11 12:10:27;;;;;;;;;;;;;;;27.28;42.41;100476.19;1775093;80;20246;-39
2021/08/11 12:13:02;;;;;;;;;;;;;;;27.31;42.44;100478.81;1767823;79;20230;-40
2021/08/11 12:15:30;;;;;;;;;;;;;;;27.34;42.43;100471.08;1770895;80;20128;-40
2021/08/11 12:17:57;;;;;;;;;;;;;;;27.36;42.45;100461.16;1770800;80;20134;-40
2021/08/11 12:20:29;;;;;;;;;;;;;;;27.39;42.44;100454.02;1767232;80;21132;-40
2021/08/11 12:22:57;;;;;;;;;;;;;;;27.42;42.45;100462.45;1773466;79;20432;-40
2021/08/11 12:25:25;;;;;;;;;;;;;;;27.43;42.46;100460.47;1772850;79;20389;-40
2021/08/11 12:28:13;;;;;;;;;;;;;;;27.45;42.45;100458.94;1768003;80;20314;-40
2021/08/11 12:30:58;;;;;;;;;;;;;;;27.48;42.48;100458.21;1756944;80;20204;-40
2021/08/11 12:33:27;;;;;;;;;;;;;;;27.49;42.47;100459.83;1786368;78;21145;-40
2021/08/11 12:35:53;;;;;;;;;;;;;;;27.51;42.48;100453.27;1785479;80;20140;-40
2021/08/11 12:38:31;;;;;;;;;;;;;;;27.52;42.48;100457.68;1766419;80;20168;-40
2021/08/11 12:40:57;;;;;;;;;;;;;;;27.54;42.50;100454.52;1777863;79;20259;-40
2021/08/11 12:43:27;;;;;;;;;;;;;;;27.56;42.52;100461.93;1772395;80;20451;-40